Time;durP1;ratioP1;P1;durP2;ratioP2;P2;SDS_P1;SDS_P2;PMS_P1;PMS_P2;Temp;Humidity;BMP_temperature;BMP_pressure;BME280_temperature;BME280_humidity;BME280_pressure;Samples;Min_cycle;Max_cycle;Signal;HPM_P1;HPM_P2
2023/08/30 00:09:13;;;;;;;1.52;0.60;;;;;;;24.46;52.11;99069.00;41608945;28;20400;-74
2023/08/30 00:29:20;;;;;;;3.28;1.10;;;;;;;23.82;53.16;99111.28;41635284;28;20137;-74
2023/08/30 00:49:20;;;;;;;0.85;0.85;;;;;;;23.60;53.67;99118.91;41616194;28;20042;-75
2023/08/30 01:09:22;;;;;;;1.38;0.90;;;;;;;23.48;53.97;99102.53;41625333;28;20524;-75
2023/08/30 01:29:23;;;;;;;4.18;1.10;;;;;;;23.75;53.73;99126.97;41635133;28;20037;-74
2023/08/30 01:49:25;;;;;;;1.80;1.42;;;;;;;23.56;53.45;99124.66;41644486;28;20045;-74
2023/08/30 02:09:32;;;;;;;3.60;1.80;;;;;;;23.53;53.03;99131.13;41632353;28;20143;-75
2023/08/30 02:29:37;;;;;;;3.38;3.08;;;;;;;23.09;53.74;99126.91;41615029;28;20080;-74
2023/08/30 02:49:38;;;;;;;4.72;3.13;;;;;;;23.21;53.43;99142.50;41644171;28;20049;-75
2023/08/30 03:09:39;;;;;;;4.22;2.80;;;;;;;22.97;53.44;99118.50;41646876;28;20060;-74
2023/08/30 03:29:39;;;;;;;4.63;3.40;;;;;;;23.08;53.41;99148.19;41626022;28;20121;-75
2023/08/30 03:49:40;;;;;;;4.00;3.00;;;;;;;23.23;52.95;99165.09;41625651;28;20148;-77
2023/08/30 04:09:41;;;;;;;4.72;3.10;;;;;;;22.74;53.40;99142.00;41616117;28;20045;-75
2023/08/30 04:29:44;;;;;;;6.35;4.35;;;;;;;22.43;54.49;99147.78;41574154;28;20041;-76
2023/08/30 04:49:50;;;;;;;8.82;4.82;;;;;;;22.74;55.91;99199.22;41569266;28;20119;-74
2023/08/30 05:09:57;;;;;;;6.28;4.22;;;;;;;22.71;54.23;99190.63;41611063;28;20050;-74
2023/08/30 05:29:58;;;;;;;10.05;3.28;;;;;;;24.25;51.54;99195.72;41599259;28;20034;-72
2023/08/30 05:49:58;;;;;;;6.28;3.00;;;;;;;24.61;50.97;99225.22;41607666;28;20156;-74
2023/08/30 06:09:59;;;;;;;3.90;2.70;;;;;;;24.59;50.91;99187.50;41616077;28;20389;-72
2023/08/30 06:29:59;;;;;;;2.83;2.50;;;;;;;24.90;51.00;99221.19;41616171;28;20103;-73
2023/08/30 06:50:00;;;;;;;3.05;2.40;;;;;;;25.01;51.14;99224.44;41611882;28;20087;-71
2023/08/30 07:10:01;;;;;;;2.47;2.28;;;;;;;25.13;51.06;99244.25;41618240;28;20049;-72
2023/08/30 07:30:01;;;;;;;2.30;2.10;;;;;;;25.22;50.82;99235.28;41588627;28;20053;-73
2023/08/30 07:50:05;;;;;;;2.40;2.20;;;;;;;25.22;50.60;99253.81;41589758;28;20045;-71
2023/08/30 08:10:06;;;;;;;2.15;1.95;;;;;;;25.30;51.01;99263.56;41601836;28;20072;-72
2023/08/30 08:30:07;;;;;;;3.05;2.35;;;;;;;25.45;50.49;99273.44;41564962;28;20386;-72
2023/08/30 08:50:09;;;;;;;2.58;2.08;;;;;;;25.45;50.96;99262.84;41549972;28;20103;-72
2023/08/30 09:10:10;;;;;;;2.00;1.90;;;;;;;25.56;50.90;99297.75;41611549;28;20060;-72
2023/08/30 09:30:11;;;;;;;2.58;2.30;;;;;;;25.56;50.68;99302.19;41609938;28;20065;-71
2023/08/30 09:50:12;;;;;;;2.63;2.15;;;;;;;25.57;50.89;99317.94;41616077;28;20052;-70
2023/08/30 10:10:13;;;;;;;2.20;2.00;;;;;;;25.53;50.65;99313.16;41607231;28;20045;-72
2023/08/30 10:30:15;;;;;;;2.17;1.98;;;;;;;25.67;51.15;99323.03;41614361;28;20045;-75
2023/08/30 10:50:16;;;;;;;4.68;3.58;;;;;;;23.76;52.39;99329.50;41663729;28;20136;-76
2023/08/30 11:10:27;;;;;;;7.95;3.83;;;;;;;22.57;53.65;99309.97;41625110;28;20045;-75
2023/08/30 11:30:58;;;;;;;7.28;3.05;;;;;;;23.28;52.58;99331.84;41604173;28;20045;-75
2023/08/30 11:50:59;;;;;;;4.70;2.78;;;;;;;23.34;51.56;99302.13;41634060;28;20053;-72
2023/08/30 12:11:06;;;;;;;3.90;2.88;;;;;;;23.15;54.77;99278.59;41655268;28;20063;-75
2023/08/30 12:31:07;;;;;;;4.80;2.55;;;;;;;23.22;53.50;99306.06;41650322;28;20523;-74
2023/08/30 12:51:08;;;;;;;3.85;3.03;;;;;;;23.41;53.28;99289.13;41623235;28;20037;-75
2023/08/30 13:11:08;;;;;;;4.35;2.60;;;;;;;23.38;51.56;99267.50;41582234;28;20067;-75
2023/08/30 13:31:10;;;;;;;4.32;2.70;;;;;;;23.45;52.76;99285.19;41609062;28;20551;-72
2023/08/30 13:51:11;;;;;;;4.80;2.17;;;;;;;23.64;51.00;99280.59;41607037;28;20048;-76
2023/08/30 14:11:13;;;;;;;2.17;1.88;;;;;;;24.32;48.93;99297.22;41613138;28;20147;-76
2023/08/30 14:31:15;;;;;;;3.22;1.77;;;;;;;24.12;48.56;99255.22;41630396;28;20053;-78
2023/08/30 14:51:17;;;;;;;4.38;2.10;;;;;;;23.80;50.01;99325.56;41609228;28;20782;-76
2023/08/30 15:11:18;;;;;;;2.38;1.70;;;;;;;23.22;50.64;99335.09;41616118;28;20056;-73
2023/08/30 15:31:20;;;;;;;6.07;1.40;;;;;;;23.38;50.25;99334.34;41611333;28;20057;-72
2023/08/30 15:51:21;;;;;;;2.83;1.23;;;;;;;23.76;49.77;99348.00;41648418;28;20065;-70
2023/08/30 16:11:24;;;;;;;1.10;1.00;;;;;;;23.53;49.62;99350.41;41606398;28;20041;-73
2023/08/30 16:31:31;;;;;;;1.00;1.00;;;;;;;23.52;49.44;99364.59;41581087;28;20049;-74
2023/08/30 16:51:31;;;;;;;4.50;1.33;;;;;;;23.62;48.61;99261.41;41589487;28;20518;-72
2023/08/30 17:11:33;;;;;;;3.80;1.10;;;;;;;24.73;49.99;99403.09;41650389;28;20045;-72
2023/08/30 17:31:46;;;;;;;1.15;1.00;;;;;;;24.19;48.45;99296.88;41634531;28;20054;-72
2023/08/30 17:51:48;;;;;;;1.05;0.95;;;;;;;23.89;48.09;99277.97;41602221;28;20052;-72
2023/08/30 18:11:49;;;;;;;1.30;1.08;;;;;;;24.23;47.84;99359.03;41575826;28;20033;-73
2023/08/30 18:32:03;;;;;;;1.90;1.10;;;;;;;24.66;47.67;99443.59;41619367;28;20045;-73
2023/08/30 18:52:07;;;;;;;1.65;1.10;;;;;;;23.26;47.46;99227.34;41627969;28;20040;-73
2023/08/30 19:12:08;;;;;;;2.15;1.30;;;;;;;23.21;47.83;99238.38;41607387;28;20085;-73
2023/08/30 19:32:12;;;;;;;2.05;1.85;;;;;;;23.28;47.58;99280.84;41611026;28;20389;-73
2023/08/30 19:52:14;;;;;;;2.30;1.80;;;;;;;24.55;47.62;99460.63;41620278;28;20041;-72
2023/08/30 20:12:15;;;;;;;4.22;1.90;;;;;;;24.74;48.21;99456.84;41540082;28;20092;-77
2023/08/30 20:32:18;;;;;;;3.83;2.03;;;;;;;24.73;47.95;99489.59;41535634;28;20049;-77
2023/08/30 20:52:21;;;;;;;3.40;2.57;;;;;;;24.84;48.31;99494.59;41594317;28;20160;-77
2023/08/30 21:12:22;;;;;;;5.75;2.08;;;;;;;24.58;47.63;99513.22;41616103;28;20053;-74
2023/08/30 21:32:23;;;;;;;5.50;1.90;;;;;;;24.69;47.58;99522.69;41591019;28;20044;-77
2023/08/30 21:52:27;;;;;;;5.10;1.73;;;;;;;24.72;46.97;99540.91;41580838;28;20053;-74
2023/08/30 22:12:28;;;;;;;1.83;1.70;;;;;;;24.59;46.42;99533.41;41538909;28;20139;-73
2023/08/30 22:32:31;;;;;;;2.65;1.75;;;;;;;23.14;47.60;99544.50;41505386;28;20045;-74
2023/08/30 22:52:35;;;;;;;2.97;1.88;;;;;;;22.63;48.11;99524.84;41563498;28;20042;-74
2023/08/30 23:12:38;;;;;;;1.95;1.80;;;;;;;22.54;48.23;99535.34;41535770;28;20057;-74
2023/08/30 23:32:38;;;;;;;1.75;1.65;;;;;;;22.45;48.92;99556.47;41542785;28;20058;-74
2023/08/30 23:52:39;;;;;;;1.50;1.40;;;;;;;22.19;49.08;99563.25;41506753;28;20038;-73
